Mauriceville, Texas
Current Conditions -  °F | °C
As of 3:53 AM on Tuesday 21 Oct 2014 (Local Time) from KBPT Reporting Station
Clear Clear  
Wind Chill: 61°   Ceiling: Unl
Heat Index: 61°   Visibility: 10mi
Dew Point: 56°   Wind: 7mph
Humidity: 83%   Direction: 30°NNE
Pressure: 30"   Gusts: NA
Location:  30.2°N, 93.87°W
Report Text: KBPT 210853Z AUTO 03006KT 10SM CLR 16/13 A3000 RMK AO2 SLP159 T01610133 58002
Loading
Personal Weather Stations






























Interactive Weather Map
Tropical Storm Tracking
New forecast layout! Learn more

10-Day Weather Forecast

Advertisements
Track Severe Weather on mobile